createdAt,value
2017-10-12T00:00:44.151Z,70.19
2017-10-12T00:03:18.605Z,70.15
2017-10-12T00:05:54.641Z,69.94
2017-10-12T00:08:31.414Z,69.92
2017-10-12T00:11:14.944Z,70.02
2017-10-12T00:13:50.154Z,69.76
2017-10-12T00:16:26.279Z,70.20
2017-10-12T00:19:02.964Z,70.48
2017-10-12T00:21:44.902Z,70.40
2017-10-12T00:24:20.180Z,70.62
2017-10-12T00:26:56.309Z,70.00
2017-10-12T00:29:31.408Z,69.63
2017-10-12T00:34:38.345Z,69.96
2017-10-12T00:37:14.714Z,69.45
2017-10-12T00:39:49.893Z,69.74
2017-10-12T00:42:25.101Z,69.73
2017-10-12T00:45:05.534Z,69.53
2017-10-12T00:47:40.878Z,70.10
2017-10-12T00:50:16.552Z,69.68
2017-10-12T00:52:51.322Z,69.38
2017-10-12T00:55:27.856Z,69.24
2017-10-12T00:58:03.594Z,68.97
2017-10-12T01:00:40.636Z,69.22
2017-10-12T01:03:17.174Z,69.28
2017-10-12T01:05:57.428Z,69.15
2017-10-12T01:08:32.767Z,69.04
2017-10-12T01:11:08.182Z,69.33
2017-10-12T01:13:46.549Z,68.99
2017-10-12T01:16:33.557Z,68.61
2017-10-12T01:19:11.343Z,68.70
2017-10-12T01:21:48.338Z,68.49
2017-10-12T01:24:25.038Z,68.15
2017-10-12T01:26:59.720Z,67.96
2017-10-12T01:29:36.529Z,67.48
2017-10-12T01:32:11.957Z,67.25
2017-10-12T01:34:47.924Z,67.04
2017-10-12T01:37:27.524Z,66.71
2017-10-12T01:40:05.875Z,66.44
2017-10-12T01:42:42.898Z,66.56
2017-10-12T01:45:28.098Z,66.34
2017-10-12T01:48:12.132Z,65.98
2017-10-12T01:50:53.909Z,66.06
2017-10-12T01:53:29.327Z,65.81
2017-10-12T01:56:11.876Z,65.46
2017-10-12T01:58:46.784Z,64.91
2017-10-12T02:01:28.417Z,64.80
2017-10-12T02:04:04.511Z,64.84
2017-10-12T02:06:45.857Z,64.67
2017-10-12T02:09:25.654Z,64.56
2017-10-12T02:12:03.477Z,64.62
2017-10-12T02:14:40.869Z,64.66
2017-10-12T02:17:16.246Z,64.03
2017-10-12T02:19:50.862Z,63.86
2017-10-12T02:22:29.378Z,63.66
2017-10-12T02:25:06.282Z,63.20
2017-10-12T02:27:41.017Z,63.58
2017-10-12T02:30:15.759Z,63.66
2017-10-12T02:35:50.530Z,63.61
2017-10-12T02:38:25.654Z,63.70
2017-10-12T02:41:03.222Z,63.92
2017-10-12T02:43:40.045Z,63.90
2017-10-12T02:46:22.466Z,63.78
2017-10-12T02:48:59.350Z,63.84
2017-10-12T02:51:40.788Z,63.79
2017-10-12T02:54:15.780Z,64.17
2017-10-12T02:56:52.487Z,64.25
2017-10-12T02:59:32.845Z,64.62
2017-10-12T03:02:09.884Z,64.70
2017-10-12T03:04:45.517Z,64.35
2017-10-12T03:07:29.813Z,64.00
2017-10-12T03:10:05.323Z,63.94
2017-10-12T03:12:41.089Z,63.73
2017-10-12T03:15:16.037Z,63.94
2017-10-12T03:17:58.537Z,63.79
2017-10-12T03:20:35.064Z,63.58
2017-10-12T03:23:12.301Z,63.51
2017-10-12T03:25:51.998Z,63.64
2017-10-12T03:28:32.884Z,63.71
2017-10-12T03:31:07.619Z,63.71
2017-10-12T03:33:45.111Z,63.69
2017-10-12T03:36:21.837Z,63.86
2017-10-12T03:38:59.462Z,63.96
2017-10-12T03:41:37.120Z,64.03
2017-10-12T03:44:12.539Z,63.68
2017-10-12T03:47:04.071Z,63.53
2017-10-12T03:49:32.524Z,63.52
2017-10-12T03:52:12.201Z,63.03
2017-10-12T03:54:49.875Z,63.11
2017-10-12T03:57:25.710Z,63.17
2017-10-12T04:00:00.560Z,63.05
2017-10-12T04:02:35.866Z,62.92
2017-10-12T04:05:14.120Z,63.06
2017-10-12T04:07:49.418Z,63.46
2017-10-12T04:10:24.001Z,63.53
2017-10-12T04:12:59.406Z,63.38
2017-10-12T04:15:38.140Z,63.62
2017-10-12T04:18:13.543Z,63.85
2017-10-12T04:20:51.707Z,64.82
2017-10-12T04:23:26.854Z,65.23
2017-10-12T04:26:06.481Z,65.20
2017-10-12T04:28:41.443Z,65.59
2017-10-12T04:31:09.871Z,66.09
2017-10-12T04:33:45.347Z,66.50
2017-10-12T04:36:22.118Z,66.22
2017-10-12T04:38:57.448Z,65.58
2017-10-12T04:41:35.272Z,64.96
2017-10-12T04:44:10.708Z,65.19
2017-10-12T04:46:46.426Z,65.48
2017-10-12T04:49:21.047Z,65.37
2017-10-12T04:51:56.447Z,65.25
2017-10-12T04:54:36.664Z,64.45
2017-10-12T04:57:11.674Z,62.92
2017-10-12T04:59:59.459Z,62.87
2017-10-12T05:02:40.741Z,61.71
2017-10-12T05:05:07.432Z,60.96
2017-10-12T05:07:46.348Z,60.45
2017-10-12T05:10:20.985Z,60.26
2017-10-12T05:13:00.956Z,59.92
2017-10-12T05:15:36.084Z,59.48
2017-10-12T05:18:12.079Z,60.77
2017-10-12T05:20:46.704Z,60.43
2017-10-12T05:23:21.565Z,61.49
2017-10-12T05:25:56.885Z,60.31
2017-10-12T05:28:31.562Z,60.00
2017-10-12T05:31:07.025Z,58.22
2017-10-12T05:36:22.317Z,58.66
2017-10-12T05:38:57.333Z,58.29
2017-10-12T05:41:31.999Z,57.84
2017-10-12T05:44:07.833Z,57.77
2017-10-12T05:46:42.232Z,57.58
2017-10-12T05:49:17.113Z,57.05
2017-10-12T05:51:51.793Z,56.72
2017-10-12T05:54:27.257Z,56.25
2017-10-12T05:57:02.422Z,55.71
2017-10-12T05:59:39.247Z,55.19
2017-10-12T06:02:14.407Z,53.37
2017-10-12T06:04:49.632Z,49.66
2017-10-12T06:07:24.507Z,46.16
2017-10-12T06:09:59.218Z,45.87
2017-10-12T06:12:33.989Z,43.46
2017-10-12T06:15:09.180Z,43.79
2017-10-12T06:17:44.367Z,44.07
2017-10-12T06:20:22.626Z,45.17
2017-10-12T06:22:57.769Z,44.95
2017-10-12T06:25:32.479Z,45.80
2017-10-12T06:28:07.254Z,47.22
2017-10-12T06:33:12.952Z,48.68
2017-10-12T06:35:39.893Z,49.36
2017-10-12T06:38:06.932Z,50.27
2017-10-12T06:40:33.683Z,50.59
2017-10-12T06:43:08.527Z,51.33
2017-10-12T06:45:43.849Z,52.03
2017-10-12T06:48:18.623Z,52.33
2017-10-12T06:50:55.974Z,51.93
2017-10-12T06:53:31.419Z,52.83
2017-10-12T06:56:07.072Z,53.41
2017-10-12T06:58:45.318Z,52.78
2017-10-12T07:01:21.146Z,52.96
2017-10-12T07:03:55.686Z,52.27
2017-10-12T07:06:30.229Z,52.42
2017-10-12T07:09:06.127Z,52.19
2017-10-12T07:11:41.308Z,51.99
2017-10-12T07:14:17.089Z,51.02
2017-10-12T07:16:51.639Z,51.22
2017-10-12T07:19:27.138Z,51.46
2017-10-12T07:22:01.756Z,50.85
2017-10-12T07:24:39.873Z,51.03
2017-10-12T07:27:15.584Z,50.93
2017-10-12T07:29:53.099Z,50.98
2017-10-12T07:32:29.997Z,50.60
2017-10-12T07:35:07.207Z,50.09
2017-10-12T07:37:42.174Z,50.36
2017-10-12T07:40:17.794Z,49.75
2017-10-12T07:42:53.177Z,49.84
2017-10-12T07:45:28.680Z,49.79
2017-10-12T07:48:03.380Z,49.98
2017-10-12T07:50:41.789Z,50.36
2017-10-12T07:53:16.206Z,50.57
2017-10-12T07:55:51.628Z,50.75
2017-10-12T07:58:26.245Z,50.67
2017-10-12T08:01:00.989Z,51.23
2017-10-12T08:03:35.475Z,50.48
2017-10-12T08:06:11.794Z,50.02
2017-10-12T08:08:46.581Z,49.86
2017-10-12T08:11:21.407Z,50.23
2017-10-12T08:13:55.885Z,49.56
2017-10-12T08:16:31.629Z,50.90
2017-10-12T08:19:06.373Z,49.32
2017-10-12T08:21:41.518Z,48.22
2017-10-12T08:24:16.052Z,47.95
2017-10-12T08:26:51.543Z,49.24
2017-10-12T08:29:26.123Z,48.08
2017-10-12T08:35:05.532Z,48.56
2017-10-12T08:37:40.786Z,48.21
2017-10-12T08:40:15.559Z,47.30
2017-10-12T08:42:50.833Z,47.94
2017-10-12T08:45:28.317Z,48.60
2017-10-12T08:48:03.126Z,47.87
2017-10-12T08:50:38.102Z,48.44
2017-10-12T08:53:12.756Z,48.94
2017-10-12T08:55:49.131Z,48.78
2017-10-12T08:58:23.580Z,46.51
2017-10-12T09:00:58.690Z,47.04
2017-10-12T09:03:33.506Z,47.61
2017-10-12T09:06:08.248Z,47.43
2017-10-12T09:08:42.809Z,47.64
2017-10-12T09:11:18.507Z,47.34
2017-10-12T09:13:53.750Z,46.78
2017-10-12T09:16:30.496Z,47.30
2017-10-12T09:19:05.547Z,46.32
2017-10-12T09:21:43.342Z,46.32
2017-10-12T09:24:18.747Z,45.78
2017-10-12T09:26:53.606Z,46.66
2017-10-12T09:29:28.089Z,45.54
2017-10-12T09:32:02.782Z,45.70
2017-10-12T09:34:37.617Z,45.59
2017-10-12T09:37:15.469Z,44.87
2017-10-12T09:39:50.877Z,43.79
2017-10-12T09:42:25.592Z,42.71
2017-10-12T09:45:00.336Z,43.53
2017-10-12T09:47:37.258Z,43.76
2017-10-12T09:50:11.933Z,43.10
2017-10-12T09:52:47.201Z,41.96
2017-10-12T09:55:22.077Z,41.66
2017-10-12T09:57:58.751Z,38.25
2017-10-12T10:00:33.727Z,39.08
2017-10-12T10:03:09.741Z,37.48
2017-10-12T10:05:44.409Z,38.37
2017-10-12T10:08:20.609Z,38.52
2017-10-12T10:10:55.193Z,37.54
2017-10-12T10:13:30.288Z,37.70
2017-10-12T10:16:05.406Z,35.73
2017-10-12T10:18:40.495Z,35.40
2017-10-12T10:21:14.909Z,36.84
2017-10-12T10:23:50.372Z,37.18
2017-10-12T10:26:27.619Z,36.39
2017-10-12T10:29:02.277Z,36.52
2017-10-12T10:31:28.952Z,37.16
2017-10-12T10:34:05.249Z,38.70
2017-10-12T10:36:39.774Z,37.73
2017-10-12T10:39:14.306Z,38.23
2017-10-12T10:41:49.052Z,38.29
2017-10-12T10:44:23.782Z,38.24
2017-10-12T10:46:58.661Z,38.90
2017-10-12T10:49:35.138Z,37.59
2017-10-12T10:52:10.155Z,38.42
2017-10-12T10:54:46.753Z,39.24
2017-10-12T10:57:21.797Z,40.38
2017-10-12T10:59:58.349Z,39.92
2017-10-12T11:02:32.864Z,37.97
2017-10-12T11:05:10.816Z,37.86
2017-10-12T11:07:46.166Z,37.89
2017-10-12T11:10:21.661Z,39.58
2017-10-12T11:12:56.350Z,43.94
2017-10-12T11:15:32.526Z,48.76
2017-10-12T11:18:07.382Z,50.22
2017-10-12T11:20:43.045Z,50.49
2017-10-12T11:23:17.537Z,50.22
2017-10-12T11:25:55.969Z,50.34
2017-10-12T11:28:31.078Z,52.81
2017-10-12T11:31:05.563Z,52.20
2017-10-12T11:33:40.042Z,52.29
2017-10-12T11:36:16.730Z,52.39
2017-10-12T11:38:52.064Z,53.39
2017-10-12T11:41:27.138Z,55.36
2017-10-12T11:44:02.447Z,55.72
2017-10-12T11:46:37.175Z,56.28
2017-10-12T11:49:12.169Z,57.27
2017-10-12T11:51:48.157Z,58.38
2017-10-12T11:54:23.327Z,58.14
2017-10-12T11:56:58.664Z,58.04
2017-10-12T11:59:33.197Z,58.62
2017-10-12T12:02:09.413Z,58.54
2017-10-12T12:04:43.880Z,60.09
2017-10-12T12:07:20.591Z,60.45
2017-10-12T12:09:59.721Z,58.83
2017-10-12T12:12:34.451Z,58.85
2017-10-12T12:15:09.160Z,57.81
2017-10-12T12:17:44.954Z,58.91
2017-10-12T12:20:19.897Z,59.32
2017-10-12T12:22:54.590Z,57.87
2017-10-12T12:25:31.586Z,58.02
2017-10-12T12:28:08.981Z,58.45
2017-10-12T12:30:44.187Z,57.34
2017-10-12T12:33:10.966Z,57.70
2017-10-12T12:35:46.331Z,57.66
2017-10-12T12:38:24.784Z,56.63
2017-10-12T12:40:59.451Z,56.75
2017-10-12T12:43:34.480Z,56.93
2017-10-12T12:46:09.572Z,56.43
2017-10-12T12:48:45.375Z,56.32
2017-10-12T12:51:20.183Z,56.63
2017-10-12T12:53:54.940Z,56.83
2017-10-12T12:56:29.767Z,57.88
2017-10-12T12:59:05.163Z,58.00
2017-10-12T13:01:40.088Z,56.79
2017-10-12T13:04:15.127Z,56.86
2017-10-12T13:06:49.777Z,56.98
2017-10-12T13:09:25.426Z,57.04
2017-10-12T13:12:00.173Z,57.31
2017-10-12T13:14:35.918Z,57.41
2017-10-12T13:17:11.044Z,58.84
2017-10-12T13:19:45.639Z,59.46
2017-10-12T13:22:20.862Z,59.90
2017-10-12T13:24:58.950Z,60.94
2017-10-12T13:27:48.587Z,61.02
2017-10-12T13:30:23.780Z,61.13
2017-10-12T13:32:58.312Z,60.57
2017-10-12T13:35:33.435Z,60.48
2017-10-12T13:38:08.006Z,59.65
2017-10-12T13:40:43.054Z,57.65
2017-10-12T13:43:18.004Z,55.95
2017-10-12T13:45:52.989Z,55.92
2017-10-12T13:48:31.524Z,57.10
2017-10-12T13:51:06.159Z,57.89
2017-10-12T13:53:41.044Z,58.55
2017-10-12T13:56:16.446Z,58.71
2017-10-12T13:58:51.186Z,57.25
2017-10-12T14:01:27.855Z,57.68
2017-10-12T14:04:02.304Z,57.76
2017-10-12T14:06:37.145Z,57.51
2017-10-12T14:09:11.969Z,58.17
2017-10-12T14:11:47.684Z,58.66
2017-10-12T14:14:22.293Z,58.89
2017-10-12T14:16:57.963Z,59.23
2017-10-12T14:19:34.738Z,59.33
2017-10-12T14:22:10.083Z,59.26
2017-10-12T14:24:44.915Z,59.03
2017-10-12T14:27:19.963Z,59.03
2017-10-12T14:29:54.646Z,59.58
2017-10-12T14:32:22.178Z,60.02
2017-10-12T14:34:57.926Z,60.73
2017-10-12T14:37:35.386Z,60.45
2017-10-12T14:40:10.315Z,60.26
2017-10-12T14:42:46.063Z,60.67
2017-10-12T14:45:20.525Z,61.96
2017-10-12T14:47:58.314Z,62.41
2017-10-12T14:50:33.350Z,63.52
2017-10-12T14:53:09.592Z,65.18
2017-10-12T14:55:44.366Z,65.61
2017-10-12T14:58:20.592Z,65.96
2017-10-12T15:00:55.739Z,66.62
2017-10-12T15:03:33.008Z,66.59
2017-10-12T15:06:08.042Z,67.35
2017-10-12T15:08:46.240Z,68.25
2017-10-12T15:11:21.418Z,68.37
2017-10-12T15:13:57.993Z,68.81
2017-10-12T15:16:32.677Z,69.10
2017-10-12T15:19:09.360Z,69.85
2017-10-12T15:21:44.309Z,70.82
2017-10-12T15:24:20.891Z,71.09
2017-10-12T15:26:55.878Z,70.99
2017-10-12T15:29:32.057Z,71.11
2017-10-12T15:32:07.071Z,71.26
2017-10-12T15:34:42.018Z,71.25
2017-10-12T15:37:17.166Z,71.57
2017-10-12T15:39:53.422Z,71.77
2017-10-12T15:42:30.648Z,71.83
2017-10-12T15:45:06.760Z,71.84
2017-10-12T15:47:47.496Z,72.18
2017-10-12T15:50:22.105Z,72.06
2017-10-12T15:52:48.758Z,71.82
2017-10-12T15:55:26.191Z,72.03
2017-10-12T15:57:52.942Z,72.07
2017-10-12T16:00:30.772Z,72.09
2017-10-12T16:03:06.155Z,71.87
2017-10-12T16:05:43.048Z,71.85
2017-10-12T16:08:18.520Z,72.02
2017-10-12T16:10:54.240Z,71.92
2017-10-12T16:13:35.110Z,71.63
2017-10-12T16:16:02.043Z,71.50
2017-10-12T16:18:37.434Z,71.54
2017-10-12T16:21:14.041Z,71.51
2017-10-12T16:23:51.860Z,71.44
2017-10-12T16:26:32.501Z,71.62
2017-10-12T16:29:13.014Z,71.95
2017-10-12T16:31:41.678Z,72.56
2017-10-12T16:34:17.175Z,72.71
2017-10-12T16:36:52.488Z,72.89
2017-10-12T16:39:27.188Z,72.83
2017-10-12T16:42:01.974Z,72.71
2017-10-12T16:44:37.052Z,72.65
2017-10-12T16:47:13.426Z,72.89
2017-10-12T16:49:54.925Z,72.99
2017-10-12T16:52:30.642Z,72.92
2017-10-12T16:55:05.678Z,73.66
2017-10-12T16:57:42.619Z,73.70
2017-10-12T17:00:17.392Z,73.73
2017-10-12T17:02:54.851Z,73.84
2017-10-12T17:05:30.628Z,74.26
2017-10-12T17:08:06.436Z,74.35
2017-10-12T17:10:41.748Z,74.45
2017-10-12T17:13:18.671Z,74.13
2017-10-12T17:15:53.773Z,74.05
2017-10-12T17:18:32.179Z,74.04
2017-10-12T17:21:07.666Z,73.61
2017-10-12T17:26:20.565Z,72.34
2017-10-12T17:28:59.627Z,72.79
2017-10-12T17:31:34.206Z,73.05
2017-10-12T17:34:13.096Z,73.15
2017-10-12T17:36:53.087Z,73.10
2017-10-12T17:39:28.985Z,73.19
2017-10-12T17:42:06.697Z,73.29
2017-10-12T17:44:46.430Z,73.58
2017-10-12T17:47:13.294Z,73.71
2017-10-12T17:49:49.379Z,73.71
2017-10-12T17:52:24.758Z,73.86
2017-10-12T17:55:00.052Z,73.89
2017-10-12T17:57:34.777Z,73.61
2017-10-12T18:00:10.991Z,73.47
2017-10-12T18:02:45.789Z,73.22
2017-10-12T18:05:21.437Z,72.73
2017-10-12T18:07:58.062Z,72.27
2017-10-12T18:10:34.188Z,71.71
2017-10-12T18:13:08.756Z,70.96
2017-10-12T18:15:44.673Z,70.52
2017-10-12T18:18:20.101Z,70.12
2017-10-12T18:20:57.656Z,69.80
2017-10-12T18:23:34.079Z,69.62
2017-10-12T18:26:08.985Z,69.96
2017-10-12T18:28:45.668Z,70.02
2017-10-12T18:34:24.542Z,71.06
2017-10-12T18:36:59.078Z,72.04
2017-10-12T18:39:33.907Z,72.06
2017-10-12T18:42:09.155Z,72.70
2017-10-12T18:44:46.239Z,72.45
2017-10-12T18:47:21.192Z,70.97
2017-10-12T18:52:30.669Z,70.62
2017-10-12T18:55:06.037Z,70.76
2017-10-12T18:57:41.094Z,70.71
2017-10-12T19:00:17.130Z,70.78
2017-10-12T19:02:52.604Z,71.14
2017-10-12T19:05:27.980Z,71.44
2017-10-12T19:08:02.695Z,71.78
2017-10-12T19:10:39.117Z,71.89
2017-10-12T19:13:14.005Z,72.29
2017-10-12T19:15:49.191Z,72.50
2017-10-12T19:18:24.609Z,73.08
2017-10-12T19:20:51.713Z,73.02
2017-10-12T19:23:26.353Z,73.58
2017-10-12T19:26:02.084Z,73.09
2017-10-12T19:28:37.392Z,72.24
2017-10-12T19:31:15.036Z,71.35
2017-10-12T19:33:50.082Z,71.10
2017-10-12T19:36:27.236Z,70.68
2017-10-12T19:39:01.897Z,70.06
2017-10-12T19:41:38.306Z,70.15
2017-10-12T19:44:13.761Z,70.12
2017-10-12T19:46:49.260Z,69.39
2017-10-12T19:49:16.125Z,69.48
2017-10-12T19:51:54.010Z,69.50
2017-10-12T19:54:28.753Z,69.40
2017-10-12T19:57:03.812Z,69.83
2017-10-12T19:59:39.158Z,70.52
2017-10-12T20:02:13.660Z,71.04
2017-10-12T20:04:48.497Z,71.27
2017-10-12T20:07:24.989Z,71.04
2017-10-12T20:10:00.522Z,71.23
2017-10-12T20:12:35.814Z,71.48
2017-10-12T20:15:11.283Z,71.60
2017-10-12T20:17:46.794Z,71.76
2017-10-12T20:20:22.320Z,72.06
2017-10-12T20:22:57.694Z,72.04
2017-10-12T20:25:33.182Z,72.00
2017-10-12T20:28:10.506Z,72.08
2017-10-12T20:30:46.047Z,71.84
2017-10-12T20:33:13.964Z,71.01
2017-10-12T20:35:48.648Z,70.95
2017-10-12T20:38:24.420Z,68.89
2017-10-12T20:41:02.278Z,67.83
2017-10-12T20:43:37.491Z,69.36
2017-10-12T20:46:12.299Z,70.12
2017-10-12T20:48:47.991Z,70.23
2017-10-12T20:51:22.557Z,69.56
2017-10-12T20:53:58.136Z,69.36
2017-10-12T20:56:33.013Z,68.80
2017-10-12T20:59:07.698Z,68.35
2017-10-12T21:01:42.290Z,68.31
2017-10-12T21:04:20.299Z,68.82
2017-10-12T21:06:55.930Z,69.30
2017-10-12T21:09:30.810Z,69.89
2017-10-12T21:12:01.019Z,69.57
2017-10-12T21:14:37.330Z,69.62
2017-10-12T21:17:14.832Z,68.84
2017-10-12T21:19:54.536Z,68.56
2017-10-12T21:22:29.669Z,68.20
2017-10-12T21:25:06.563Z,68.22
2017-10-12T21:27:42.405Z,67.27
2017-10-12T21:30:18.798Z,67.41
2017-10-12T21:32:56.183Z,66.56
2017-10-12T21:35:31.379Z,65.91
2017-10-12T21:38:05.929Z,65.55
2017-10-12T21:40:41.915Z,65.24
2017-10-12T21:43:17.300Z,65.10
2017-10-12T21:45:53.848Z,64.61
2017-10-12T21:48:31.406Z,64.07
2017-10-12T21:51:06.952Z,63.82
2017-10-12T21:53:44.599Z,63.28
2017-10-12T21:56:21.427Z,63.07
2017-10-12T21:59:00.975Z,62.20
2017-10-12T22:01:38.470Z,62.59
2017-10-12T22:04:14.416Z,62.40
2017-10-12T22:06:49.937Z,63.07
2017-10-12T22:09:26.720Z,63.53
2017-10-12T22:12:07.823Z,62.85
2017-10-12T22:14:48.118Z,62.88
2017-10-12T22:17:25.450Z,62.00
2017-10-12T22:20:00.089Z,61.37
2017-10-12T22:22:35.533Z,60.21
2017-10-12T22:25:10.342Z,60.46
2017-10-12T22:27:47.402Z,60.67
2017-10-12T22:30:22.683Z,60.49
2017-10-12T22:35:59.812Z,60.70
2017-10-12T22:38:35.171Z,61.57
2017-10-12T22:41:13.034Z,61.94
2017-10-12T22:43:50.294Z,62.94
2017-10-12T22:46:30.827Z,63.31
2017-10-12T22:49:05.790Z,63.69
2017-10-12T22:51:46.495Z,64.02
2017-10-12T22:54:23.648Z,64.61
2017-10-12T22:56:59.256Z,65.11
2017-10-12T22:59:40.499Z,65.77
2017-10-12T23:02:15.820Z,66.20
2017-10-12T23:05:02.454Z,66.21
2017-10-12T23:07:37.226Z,66.22
2017-10-12T23:10:13.151Z,66.67
2017-10-12T23:12:50.251Z,66.84
2017-10-12T23:15:31.181Z,67.32
2017-10-12T23:18:10.219Z,66.85
2017-10-12T23:20:44.959Z,67.28
2017-10-12T23:23:19.829Z,67.49
2017-10-12T23:25:56.763Z,67.50
2017-10-12T23:28:31.770Z,67.79
2017-10-12T23:31:06.602Z,67.99
2017-10-12T23:33:42.341Z,68.25
2017-10-12T23:36:28.164Z,68.70
2017-10-12T23:39:04.529Z,68.40
2017-10-12T23:41:45.238Z,68.67
2017-10-12T23:44:21.863Z,68.24
2017-10-12T23:47:00.021Z,68.41
2017-10-12T23:49:40.558Z,67.68
2017-10-12T23:52:15.489Z,68.15
2017-10-12T23:54:56.094Z,67.63
2017-10-12T23:57:30.986Z,67.71
